Terminal Aerodrome Forecast
Issued by NWS

Home | Current Version | Previous Version | Graphics & Text | Print | Product List | Glossary On
Versions: 1 2 3 4 5 6 7 8 9 10 11 12 13
000
FTUS43 KGRB 221729
TAFRHI
TAF
KRHI 221729Z 2218/2318 20010G15KT P6SM VCTS BKN040CB
      TEMPO 2218/2219 1 1/2SM +TSRA SCT012 OVC020CB
     FM222000 20008G14KT P6SM BKN035 BKN150
     FM230000 19008KT P6SM BKN200
     FM230200 21007KT P6SM BKN250 WS012/22040KT
     FM231400 22010G17KT P6SM SCT035 BKN250=

USA.gov is the U.S. government's official web portal to all federal, state and local government web resources and services.